Terminal Aerodrome Forecast
Issued by NWS Cleveland, OH

Home | Current Version | Previous Version | Text Only | Print | Product List | Glossary On
Versions: 1 2 3 4 5 6 7 8 9 10 11 12 13 14 15 16 17 18 19 20 21 22 23 24
000
FTUS41 KCLE 010534
TAFCLE
TAF
KCLE 010534Z 0106/0212 24006KT P6SM SCT035 BKN250
      TEMPO 0108/0110 5SM BR BKN035
     FM011000 26006KT 5SM BR SCT012 BKN025
     FM011400 28008KT P6SM SCT025 BKN045
     FM012000 30010KT P6SM SCT045
     FM020200 36005KT P6SM SCT250=

USA.gov is the U.S. government's official web portal to all federal, state and local government web resources and services.